Portada
METAR-TAF:

METAR-TAF

Aeroports :

Antakya, Turquia

latitud: 36-21-46N, longitud: 36-16-56E, altitud: 1950 m

Observació

L'informe es va fer fa 39 minuts, a les 20:50 UTC
Vent 5 kt del Oest/Sud-Oest, variant entre Sud-Oest i Nord-Oest
Temperatura 24°C
Humitat 89%
Pressió 1011 hPa
Visibilitat 10 km o més
sense núvols per sota de 1500 mi sense presència de cumulonimbus.

METAR: LTDA 012050Z 25005KT 220V320 CAVOK 24/22 Q1011 NOSIG

Hora: 00:29 (21:29 UTC)

Pronòstic

L'informe es va fer fa 1 hora i 49 minuts, a les 19:40 UTC
Pronòstic vàlid del 01 a les 21 UTC al 02 a les 06 UTC
Vent 12 kt del Oest/Sud-Oest
Visibilitat 10 km o més
sense núvols per sota de 1500 mi sense presència de cumulonimbus.
Evolucionant progressivament
l' 01 a les 21 UTC al 01 a les 24 UTC
Vent 2 kt amb direcció variable

TAF: LTDA 011940Z 0121/0206 25012KT CAVOK BECMG 0121/0124 VRB02KT

Observacions i pronòstics meteorològics de més de 4000 aeroports (METAR i TAF).

Les estacions disponibles són els punts grocs i vermells al mapa.

Posi el ratolí al punt desitjat per veure el nom de l'estació.

Feu clic per veure les observacions i els pronòstics meteorològics.

Per canviar el mapa: feu clic els botons verds amb una creu de color negre per apropar; al botó verd amb un guió per allunyar la imatge; o en les fletxes verdes per a mapes adjacents.


METAR-TAF: